Time;durP1;ratioP1;P1;durP2;ratioP2;P2;SDS_P1;SDS_P2;PMS_P1;PMS_P2;Temp;Humidity;BMP_temperature;BMP_pressure;BME280_temperature;BME280_humidity;BME280_pressure;Samples;Min_cycle;Max_cycle;Signal;HPM_P1;HPM_P2
2022/06/05 00:01:16;;;;;;;14.07;8.82;;;11.80;99.90;;;;;;5052381;28;20052;-65
2022/06/05 00:03:59;;;;;;;14.40;9.43;;;11.80;99.90;;;;;;5053528;28;20398;-65
2022/06/05 00:06:31;;;;;;;19.30;8.20;;;11.80;99.90;;;;;;5054551;28;20489;-65
2022/06/05 00:09:21;;;;;;;13.70;7.90;;;11.90;99.90;;;;;;5035262;28;20036;-65
2022/06/05 00:12:08;;;;;;;15.57;7.68;;;11.90;99.90;;;;;;5053181;28;20517;-66
2022/06/05 00:14:39;;;;;;;12.25;8.32;;;11.90;99.90;;;;;;5053717;28;20041;-65
2022/06/05 00:17:17;;;;;;;14.07;8.20;;;11.90;99.90;;;;;;5052640;28;20044;-66
2022/06/05 00:19:48;;;;;;;13.55;8.10;;;11.90;99.90;;;;;;5053787;28;20053;-65
2022/06/05 00:22:13;;;;;;;16.73;9.15;;;11.90;99.90;;;;;;5053462;28;20045;-65
2022/06/05 00:24:40;;;;;;;14.20;8.38;;;11.90;99.90;;;;;;5052929;28;20041;-65
2022/06/05 00:27:23;;;;;;;16.08;8.70;;;12.00;99.90;;;;;;5053561;28;20063;-65
2022/06/05 00:30:23;;;;;;;12.18;7.93;;;12.00;99.90;;;;;;5051575;28;20040;-65
2022/06/05 00:33:11;;;;;;;18.23;8.20;;;12.00;99.90;;;;;;5053574;28;20043;-65
2022/06/05 00:35:52;;;;;;;11.73;7.90;;;12.00;99.90;;;;;;5053102;28;20049;-65
2022/06/05 00:38:40;;;;;;;12.80;7.63;;;12.00;99.90;;;;;;5052758;28;20041;-65
2022/06/05 00:41:45;;;;;;;12.38;6.95;;;12.00;99.90;;;;;;5052496;28;20045;-65
2022/06/05 00:44:15;;;;;;;16.42;8.25;;;12.00;99.90;;;;;;5051614;28;20485;-65
2022/06/05 00:46:42;;;;;;;12.63;7.88;;;12.00;99.90;;;;;;5035617;28;20045;-65
2022/06/05 00:49:10;;;;;;;13.55;7.65;;;12.00;99.90;;;;;;5050484;28;20043;-65
2022/06/05 00:51:36;;;;;;;12.13;7.78;;;12.00;99.90;;;;;;5053706;28;20040;-65
2022/06/05 00:54:02;;;;;;;21.00;10.07;;;12.10;99.90;;;;;;5051807;28;20037;-65
2022/06/05 00:56:28;;;;;;;13.70;7.43;;;12.10;99.90;;;;;;5052874;28;20049;-65
2022/06/05 00:58:54;;;;;;;11.50;8.57;;;12.00;99.90;;;;;;5052950;28;20438;-66
2022/06/05 01:01:21;;;;;;;11.32;7.57;;;12.00;99.90;;;;;;5053378;28;20364;-65
2022/06/05 01:03:47;;;;;;;14.25;8.45;;;12.00;99.90;;;;;;5052532;28;20039;-65
2022/06/05 01:06:13;;;;;;;16.30;8.05;;;12.00;99.90;;;;;;5052020;28;20447;-65
2022/06/05 01:08:40;;;;;;;12.32;7.90;;;12.00;99.90;;;;;;5053371;28;20064;-65
2022/06/05 01:11:18;;;;;;;12.80;8.00;;;12.00;99.90;;;;;;5051912;28;20044;-66
2022/06/05 01:14:08;;;;;;;16.50;9.07;;;12.00;99.90;;;;;;5053195;28;20497;-66
2022/06/05 01:16:53;;;;;;;22.45;9.38;;;12.00;99.90;;;;;;5051880;28;20089;-65
2022/06/05 01:19:25;;;;;;;17.13;9.07;;;12.00;99.90;;;;;;5051041;28;20064;-65
2022/06/05 01:22:16;;;;;;;14.00;8.57;;;12.00;99.90;;;;;;5051335;28;20425;-65
2022/06/05 01:25:10;;;;;;;13.15;8.73;;;12.00;99.90;;;;;;5043332;28;20053;-65
2022/06/05 01:27:40;;;;;;;15.65;9.60;;;12.00;99.90;;;;;;5051829;28;20053;-65
2022/06/05 01:30:12;;;;;;;14.73;9.60;;;12.00;99.90;;;;;;5034734;28;20424;-65
2022/06/05 01:32:52;;;;;;;14.20;8.70;;;12.00;99.90;;;;;;5051199;28;20115;-65
2022/06/05 01:35:25;;;;;;;16.05;9.50;;;12.00;99.90;;;;;;5034976;28;20043;-65
2022/06/05 01:38:00;;;;;;;13.57;9.35;;;12.00;99.90;;;;;;5052514;28;20048;-65
2022/06/05 01:40:30;;;;;;;;;;;12.00;99.90;;;;;;5051408;28;20127;-65
2022/06/05 01:43:02;;;;;;;17.20;8.70;;;11.90;99.90;;;;;;5052373;28;20281;-65
2022/06/05 01:45:45;;;;;;;15.85;9.25;;;11.90;99.90;;;;;;5050397;28;20080;-65
2022/06/05 01:48:19;;;;;;;16.23;9.18;;;11.90;99.90;;;;;;5051255;28;20494;-65
2022/06/05 01:50:48;;;;;;;14.93;9.68;;;11.90;99.90;;;;;;5051348;28;20071;-65
2022/06/05 01:53:23;;;;;;;14.55;9.52;;;11.90;99.90;;;;;;5050522;28;20402;-65
2022/06/05 01:56:01;;;;;;;18.25;10.07;;;11.90;99.90;;;;;;5052161;28;20040;-65
2022/06/05 01:58:37;;;;;;;21.50;11.02;;;11.90;99.90;;;;;;5052608;28;20049;-65
2022/06/05 02:01:09;;;;;;;19.00;10.40;;;11.90;99.90;;;;;;5049404;28;20128;-65
2022/06/05 02:03:44;;;;;;;19.17;10.07;;;11.90;99.90;;;;;;5051498;28;20393;-65
2022/06/05 02:06:15;;;;;;;15.38;9.52;;;12.00;99.90;;;;;;5050841;28;20055;-65
2022/06/05 02:09:32;;;;;;;14.88;8.82;;;11.90;99.90;;;;;;5051652;28;20045;-65
2022/06/05 02:12:01;;;;;;;15.18;8.90;;;12.00;99.90;;;;;;5066106;28;20099;-65
2022/06/05 02:14:26;;;;;;;14.93;8.57;;;11.90;99.90;;;;;;5050401;28;20047;-65
2022/06/05 02:16:52;;;;;;;16.75;9.30;;;12.00;99.90;;;;;;5034233;28;20041;-65
2022/06/05 02:19:21;;;;;;;16.10;9.55;;;12.00;99.90;;;;;;5052205;28;20128;-65
2022/06/05 02:21:48;;;;;;;14.23;8.90;;;12.00;99.90;;;;;;5051100;28;20049;-65
2022/06/05 02:24:15;;;;;;;20.17;9.88;;;12.00;99.90;;;;;;5050918;28;20044;-65
2022/06/05 02:26:41;;;;;;;18.23;8.70;;;12.00;99.90;;;;;;5034116;28;20553;-65
2022/06/05 02:29:21;;;;;;;15.32;8.70;;;12.00;99.90;;;;;;5049368;28;20121;-65
2022/06/05 02:32:05;;;;;;;14.85;8.48;;;12.00;99.90;;;;;;5052151;28;20033;-65
2022/06/05 02:34:40;;;;;;;16.42;9.20;;;12.00;99.90;;;;;;5050879;28;20047;-66
2022/06/05 02:37:36;;;;;;;15.15;9.35;;;12.00;99.90;;;;;;5050639;28;20045;-65
2022/06/05 02:40:19;;;;;;;18.15;8.57;;;12.00;99.90;;;;;;5051341;28;20198;-65
2022/06/05 02:43:06;;;;;;;18.75;8.55;;;12.10;99.90;;;;;;5050941;28;20067;-65
2022/06/05 02:45:59;;;;;;;14.73;9.63;;;12.00;99.90;;;;;;5050662;28;20041;-65
2022/06/05 02:48:57;;;;;;;13.48;9.27;;;12.10;99.90;;;;;;5050946;28;20555;-65
2022/06/05 02:51:35;;;;;;;15.73;8.77;;;12.10;99.90;;;;;;5045639;28;20128;-65
2022/06/05 02:54:01;;;;;;;16.67;9.38;;;12.10;99.90;;;;;;5050442;28;20044;-65
2022/06/05 02:56:30;;;;;;;19.50;9.32;;;12.00;99.90;;;;;;5050099;28;20428;-66
2022/06/05 02:58:57;;;;;;;15.07;9.25;;;12.10;99.90;;;;;;5049852;28;20052;-65
2022/06/05 03:04:08;;;;;;;16.80;9.32;;;12.10;99.90;;;;;;5049561;28;20056;-65
2022/06/05 03:06:35;;;;;;;22.05;11.00;;;12.10;99.90;;;;;;5050570;28;20044;-65
2022/06/05 03:09:01;;;;;;;14.48;9.13;;;12.10;99.90;;;;;;5051327;28;20037;-65
2022/06/05 03:11:27;;;;;;;16.70;9.80;;;12.20;99.90;;;;;;5050976;28;20406;-65
2022/06/05 03:13:52;;;;;;;18.30;10.30;;;12.20;99.90;;;;;;5054070;28;20044;-65
2022/06/05 03:16:19;;;;;;;18.92;10.48;;;12.20;99.90;;;;;;5054325;28;20124;-65
2022/06/05 03:18:44;;;;;;;16.15;9.27;;;12.20;99.90;;;;;;5052900;28;20048;-65
2022/06/05 03:21:10;;;;;;;19.70;10.45;;;12.20;99.90;;;;;;5053963;28;20049;-65
2022/06/05 03:23:36;;;;;;;15.93;10.05;;;12.20;99.90;;;;;;5054192;28;20041;-65
2022/06/05 03:26:02;;;;;;;16.95;10.55;;;12.20;99.90;;;;;;5052735;28;20049;-65
2022/06/05 03:28:28;;;;;;;20.05;11.02;;;12.30;99.90;;;;;;5053947;28;20045;-65
2022/06/05 03:30:53;;;;;;;21.55;10.50;;;12.30;99.90;;;;;;5053048;28;20048;-65
2022/06/05 03:33:19;;;;;;;20.10;10.93;;;12.30;99.90;;;;;;5053806;28;20041;-65
2022/06/05 03:35:47;;;;;;;16.95;10.35;;;12.30;99.90;;;;;;5055139;28;20033;-65
2022/06/05 03:38:14;;;;;;;16.45;9.85;;;12.30;99.90;;;;;;5052865;28;20048;-65
2022/06/05 03:40:44;;;;;;;25.08;11.15;;;12.40;99.90;;;;;;5053739;28;20049;-65
2022/06/05 03:43:10;;;;;;;18.50;11.25;;;12.40;99.90;;;;;;5053692;28;20041;-65
2022/06/05 03:45:36;;;;;;;19.92;9.73;;;12.40;99.90;;;;;;5054055;28;20095;-66
2022/06/05 03:48:02;;;;;;;17.17;11.07;;;12.40;99.90;;;;;;5053122;28;20528;-66
2022/06/05 03:50:28;;;;;;;20.50;11.60;;;12.40;99.90;;;;;;5053738;28;20037;-65
2022/06/05 03:52:53;;;;;;;25.50;12.55;;;12.50;99.90;;;;;;5053528;28;20398;-65
2022/06/05 03:55:22;;;;;;;23.42;13.18;;;12.50;99.90;;;;;;5053703;28;20128;-65
2022/06/05 03:57:48;;;;;;;16.92;11.23;;;12.50;99.90;;;;;;5054409;28;20481;-65
2022/06/05 04:00:16;;;;;;;23.50;12.18;;;12.50;99.90;;;;;;5052765;28;20390;-65
2022/06/05 04:02:42;;;;;;;22.95;11.68;;;12.50;99.90;;;;;;5053471;28;20047;-65
2022/06/05 04:05:09;;;;;;;22.92;11.93;;;12.60;99.90;;;;;;5053300;28;20037;-65
2022/06/05 04:07:35;;;;;;;24.02;12.32;;;12.60;99.90;;;;;;5053936;28;20056;-65
2022/06/05 04:10:00;;;;;;;20.48;10.98;;;12.60;99.90;;;;;;5053712;28;20033;-66
2022/06/05 04:12:26;;;;;;;21.77;12.02;;;12.70;99.90;;;;;;5053639;28;20083;-65
2022/06/05 04:14:52;;;;;;;16.83;10.60;;;12.70;99.90;;;;;;5051833;28;20045;-65
2022/06/05 04:17:18;;;;;;;16.08;11.13;;;12.70;99.90;;;;;;5053190;28;20075;-65
2022/06/05 04:19:43;;;;;;;20.90;10.80;;;12.70;99.90;;;;;;5052686;28;20053;-66
2022/06/05 04:22:09;;;;;;;17.50;8.63;;;12.80;99.90;;;;;;5053390;28;20457;-66
2022/06/05 04:24:34;;;;;;;19.35;10.27;;;12.80;99.90;;;;;;5053898;28;20045;-65
2022/06/05 04:27:00;;;;;;;18.25;9.80;;;12.90;99.90;;;;;;5052333;28;20037;-65
2022/06/05 04:29:26;;;;;;;18.20;9.75;;;12.90;99.90;;;;;;5053294;28;20037;-66
2022/06/05 04:31:51;;;;;;;16.05;9.77;;;13.00;99.90;;;;;;5052497;28;20382;-65
2022/06/05 04:34:22;;;;;;;17.73;10.05;;;13.00;99.90;;;;;;5035709;28;20044;-66
2022/06/05 04:36:48;;;;;;;18.17;10.02;;;13.00;99.90;;;;;;5053867;28;20047;-66
2022/06/05 04:39:14;;;;;;;13.00;8.25;;;13.10;99.90;;;;;;5052547;28;20045;-66
2022/06/05 04:41:40;;;;;;;14.30;9.38;;;13.10;99.90;;;;;;5053091;28;20040;-65
2022/06/05 04:44:08;;;;;;;20.25;9.88;;;13.10;99.90;;;;;;5052103;28;20041;-66
2022/06/05 04:46:34;;;;;;;12.80;8.63;;;13.20;99.90;;;;;;5052467;28;20482;-66
2022/06/05 04:49:00;;;;;;;17.92;10.52;;;13.20;99.90;;;;;;5051352;28;20041;-65
2022/06/05 04:51:26;;;;;;;16.02;9.73;;;13.30;99.90;;;;;;5053813;28;20120;-66
2022/06/05 04:53:54;;;;;;;16.45;9.77;;;13.30;99.90;;;;;;5053025;28;20123;-65
2022/06/05 04:56:24;;;;;;;17.27;9.93;;;13.40;99.90;;;;;;5051658;28;20494;-66
2022/06/05 04:58:50;;;;;;;14.25;9.35;;;13.40;99.90;;;;;;5052885;28;20505;-66
2022/06/05 05:01:25;;;;;;;15.25;9.73;;;13.40;99.90;;;;;;5052398;28;20044;-65
2022/06/05 05:03:54;;;;;;;19.88;9.77;;;13.40;99.90;;;;;;5052314;28;20044;-65
2022/06/05 05:06:20;;;;;;;15.23;9.27;;;13.50;99.90;;;;;;5052267;28;20077;-65
2022/06/05 05:08:45;;;;;;;17.98;9.90;;;13.80;99.90;;;;;;5052886;28;20073;-65
2022/06/05 05:11:11;;;;;;;16.75;10.35;;;13.50;99.90;;;;;;5052252;28;20037;-65
2022/06/05 05:13:37;;;;;;;15.63;9.20;;;13.50;99.90;;;;;;5053588;28;20072;-65
2022/06/05 05:16:04;;;;;;;16.88;9.73;;;13.50;99.90;;;;;;5051434;28;20551;-66
2022/06/05 05:18:29;;;;;;;16.27;9.18;;;13.60;99.90;;;;;;5034301;28;20047;-66
2022/06/05 05:21:10;;;;;;;17.77;9.23;;;13.60;99.90;;;;;;5052583;28;20040;-66
2022/06/05 05:23:36;;;;;;;14.15;9.60;;;13.70;99.90;;;;;;5051221;28;20398;-66
2022/06/05 05:26:07;;;;;;;18.17;9.32;;;14.20;99.90;;;;;;5051470;28;20041;-66
2022/06/05 05:28:33;;;;;;;18.40;10.45;;;13.90;99.90;;;;;;5051816;28;20044;-66
2022/06/05 05:30:59;;;;;;;14.82;9.10;;;14.10;99.90;;;;;;5051793;28;20032;-66
2022/06/05 05:33:24;;;;;;;15.80;8.82;;;14.20;99.90;;;;;;5051568;28;20170;-66
2022/06/05 05:35:50;;;;;;;17.08;9.55;;;14.30;99.90;;;;;;5033972;28;20090;-66
2022/06/05 05:38:16;;;;;;;15.48;8.82;;;14.40;99.90;;;;;;5051983;28;20033;-66
2022/06/05 05:43:26;;;;;;;17.27;9.18;;;14.50;99.90;;;;;;5052973;28;20120;-66
2022/06/05 05:45:51;;;;;;;15.50;9.25;;;14.60;99.90;;;;;;5051441;28;20206;-66
2022/06/05 05:48:17;;;;;;;16.02;9.43;;;14.70;99.90;;;;;;5051405;28;20048;-66
2022/06/05 05:50:44;;;;;;;13.68;9.63;;;14.60;99.90;;;;;;5050959;28;20033;-66
2022/06/05 05:53:13;;;;;;;15.45;9.82;;;;;;;;;;5050323;28;20041;-66
2022/06/05 05:55:39;;;;;;;15.73;8.90;;;;;;;;;;5051313;28;20490;-66
2022/06/05 05:58:06;;;;;;;13.93;8.55;;;;;;;;;;5048308;28;20041;-66
2022/06/05 06:00:33;;;;;;;16.00;9.13;;;;;;;;;;5031683;28;20064;-66
2022/06/05 06:02:59;;;;;;;13.30;9.52;;;;;;;;;;5038048;28;20495;-66
2022/06/05 06:05:25;;;;;;;15.60;9.82;;;;;;;;;;5025628;28;20494;-66
2022/06/05 06:07:51;;;;;;;15.75;8.63;;;;;;;;;;5032910;28;20439;-66
2022/06/05 06:10:19;;;;;;;14.73;9.13;;;15.50;99.90;;;;;;5049789;28;20386;-66
2022/06/05 06:12:44;;;;;;;16.15;9.75;;;15.10;99.90;;;;;;5048652;28;20069;-66
2022/06/05 06:15:11;;;;;;;14.52;8.52;;;15.00;99.90;;;;;;5047540;28;20453;-66
2022/06/05 06:17:36;;;;;;;15.13;9.50;;;15.00;99.90;;;;;;5047714;28;20041;-66
2022/06/05 06:20:03;;;;;;;12.75;8.52;;;15.00;99.90;;;;;;5035161;28;20076;-66
2022/06/05 06:22:29;;;;;;;14.57;9.77;;;15.10;99.90;;;;;;5041479;28;20032;-66
2022/06/05 06:24:54;;;;;;;15.88;10.20;;;15.10;99.90;;;;;;5046081;28;20521;-66
2022/06/05 06:27:20;;;;;;;13.65;9.15;;;15.10;99.90;;;;;;5046497;28;20048;-66
2022/06/05 06:29:45;;;;;;;15.73;10.07;;;15.10;99.90;;;;;;5023738;28;20050;-66
2022/06/05 06:32:11;;;;;;;14.27;8.35;;;15.10;99.90;;;;;;5046026;28;20034;-66
2022/06/05 06:34:37;;;;;;;13.52;9.23;;;15.20;99.90;;;;;;5044534;28;20042;-65
2022/06/05 06:37:03;;;;;;;16.60;9.30;;;15.20;99.90;;;;;;5032555;28;20045;-66
2022/06/05 06:39:29;;;;;;;12.25;7.97;;;;;;;;;;5037842;28;20491;-66
2022/06/05 06:41:55;;;;;;;14.85;8.35;;;17.20;99.90;;;;;;5042276;28;20052;-66
2022/06/05 06:44:20;;;;;;;16.38;8.80;;;15.20;99.90;;;;;;5044979;28;20053;-67
2022/06/05 06:46:46;;;;;;;12.55;8.70;;;15.50;99.90;;;;;;5041798;28;20128;-66
2022/06/05 06:49:12;;;;;;;12.90;8.95;;;15.30;99.90;;;;;;5032374;28;20045;-67
2022/06/05 06:51:38;;;;;;;15.85;8.80;;;;;;;;;;5032694;28;20072;-66
2022/06/05 06:54:05;;;;;;;14.75;9.02;;;;;;;;;;5015126;28;20238;-66
2022/06/05 06:56:33;;;;;;;12.60;7.53;;;15.40;99.90;;;;;;5042494;28;20044;-66
2022/06/05 06:59:02;;;;;;;15.27;9.10;;;15.80;99.90;;;;;;5052657;28;20053;-67
2022/06/05 07:01:28;;;;;;;16.23;10.07;;;15.20;99.90;;;;;;5051964;28;20041;-66
2022/06/05 07:03:54;;;;;;;16.15;9.63;;;;;;;;;;5034414;28;20048;-66
2022/06/05 07:06:20;;;;;;;15.13;10.45;;;15.60;99.90;;;;;;5050489;28;20045;-66
2022/06/05 07:08:47;;;;;;;13.43;8.98;;;15.60;99.90;;;;;;5023164;28;20374;-66
2022/06/05 07:11:14;;;;;;;15.93;9.52;;;15.60;99.90;;;;;;5043550;28;20065;-66
2022/06/05 07:13:39;;;;;;;12.52;7.32;;;15.70;99.90;;;;;;5042892;28;20037;-66
2022/06/05 07:16:07;;;;;;;15.88;8.98;;;15.70;99.90;;;;;;5038574;28;20107;-66
2022/06/05 07:18:32;;;;;;;14.05;10.35;;;15.80;99.90;;;;;;5015086;28;20051;-66
2022/06/05 07:21:06;;;;;;;13.18;8.57;;;;;;;;;;5026761;28;20049;-66
2022/06/05 07:23:32;;;;;;;11.27;8.60;;;;;;;;;;5033070;28;20064;-66
2022/06/05 07:25:58;;;;;;;11.90;8.32;;;;;;;;;;5049558;28;20466;-66
2022/06/05 07:28:24;;;;;;;11.98;8.50;;;;;;;;;;5051816;28;20047;-66
2022/06/05 07:30:51;;;;;;;11.52;7.45;;;;;;;;;;5032283;28;20033;-66
2022/06/05 07:33:18;;;;;;;12.25;8.90;;;;;;;;;;5046499;28;20098;-67
2022/06/05 07:35:44;;;;;;;13.43;8.95;;;;;;;;;;5035042;28;20051;-66
2022/06/05 07:38:10;;;;;;;16.38;9.75;;;;;;;;;;5037825;28;20068;-66
2022/06/05 07:40:41;;;;;;;16.13;10.02;;;17.40;99.90;;;;;;5043990;28;20172;-66
2022/06/05 07:43:09;;;;;;;14.55;9.38;;;16.50;99.90;;;;;;5032460;28;20044;-66
2022/06/05 07:45:35;;;;;;;12.88;8.45;;;16.70;99.90;;;;;;5035085;28;20064;-66
2022/06/05 07:48:01;;;;;;;15.52;9.82;;;;;;;;;;5032412;28;20029;-66
2022/06/05 07:50:26;;;;;;;11.73;8.93;;;17.00;99.90;;;;;;5033259;28;20387;-66
2022/06/05 07:55:36;;;;;;;12.38;8.55;;;17.10;99.90;;;;;;5050758;28;20541;-66
2022/06/05 07:58:02;;;;;;;14.07;9.90;;;17.30;99.90;;;;;;5047439;28;20112;-66
2022/06/05 08:00:27;;;;;;;13.27;9.48;;;17.40;99.90;;;;;;5047034;28;20041;-67
2022/06/05 08:02:53;;;;;;;12.43;9.13;;;17.60;99.90;;;;;;5041812;28;20041;-67
2022/06/05 08:05:19;;;;;;;13.07;8.10;;;17.60;99.90;;;;;;5030056;28;20048;-66
2022/06/05 08:07:44;;;;;;;12.63;9.13;;;17.70;99.90;;;;;;5034361;28;20041;-66
2022/06/05 08:10:10;;;;;;;12.68;8.60;;;;;;;;;;5038802;28;20542;-68
2022/06/05 08:12:36;;;;;;;10.75;8.05;;;;;;;;;;5049682;28;20144;-67
2022/06/05 08:15:05;;;;;;;11.65;8.77;;;18.10;99.90;;;;;;5023788;28;20033;-64
2022/06/05 08:17:32;;;;;;;12.45;9.35;;;18.10;99.90;;;;;;5043455;28;20513;-64
2022/06/05 08:19:59;;;;;;;12.38;8.93;;;18.10;99.90;;;;;;5029849;28;20065;-64
2022/06/05 08:22:25;;;;;;;13.80;9.13;;;18.10;99.90;;;;;;5031462;28;20405;-64
2022/06/05 08:24:54;;;;;;;12.77;9.38;;;18.10;99.90;;;;;;5030192;28;20410;-64
2022/06/05 08:27:23;;;;;;;13.20;8.27;;;;;;;;;;5030456;28;20045;-65
2022/06/05 08:29:50;;;;;;;15.07;9.00;;;18.30;99.90;;;;;;5030099;28;20120;-65
2022/06/05 08:32:16;;;;;;;11.63;8.60;;;;;;;;;;5031516;28;20048;-65
2022/06/05 08:34:43;;;;;;;10.90;8.07;;;;;;;;;;5043010;28;20072;-65
2022/06/05 08:42:58;;;;;;;12.00;8.35;;;;;;;;;;5038721;28;20100;-65
2022/06/05 08:45:28;;;;;;;12.32;9.00;;;;;;;;;;5052673;28;20037;-66
2022/06/05 08:47:59;;;;;;;11.90;9.18;;;;;;;;;;5052338;28;20029;-66
2022/06/05 08:50:49;;;;;;;11.93;8.43;;;18.60;99.90;;;;;;5053963;28;20037;-65
2022/06/05 08:53:15;;;;;;;11.23;7.78;;;18.70;99.90;;;;;;5048517;28;20163;-65
2022/06/05 08:55:44;;;;;;;11.52;8.52;;;18.80;99.90;;;;;;5051777;28;20060;-66
2022/06/05 08:58:23;;;;;;;13.13;9.07;;;18.80;99.90;;;;;;5052220;28;20385;-65
2022/06/05 09:01:16;;;;;;;11.88;8.65;;;18.90;99.90;;;;;;5053258;28;20083;-65
2022/06/05 09:03:48;;;;;;;11.07;8.27;;;19.00;99.90;;;;;;5051473;28;20501;-65
2022/06/05 09:06:32;;;;;;;10.48;8.57;;;19.10;99.90;;;;;;5053496;28;20041;-65
2022/06/05 09:08:58;;;;;;;10.38;7.60;;;;;;;;;;5050767;28;20041;-66
2022/06/05 09:11:39;;;;;;;10.40;8.07;;;;;;;;;;5051460;28;20048;-66
2022/06/05 09:14:25;;;;;;;13.60;8.15;;;;;;;;;;5051531;28;20040;-66
2022/06/05 09:16:54;;;;;;;12.65;8.45;;;;;;;;;;5050600;28;20052;-66
2022/06/05 09:19:27;;;;;;;10.48;8.25;;;19.40;99.90;;;;;;5052049;28;20111;-65
2022/06/05 09:22:10;;;;;;;10.98;8.57;;;19.40;99.90;;;;;;5051253;28;20056;-65
2022/06/05 09:24:51;;;;;;;11.98;7.88;;;19.50;99.90;;;;;;5051174;28;20045;-65
2022/06/05 09:28:00;;;;;;;10.77;7.65;;;19.60;99.90;;;;;;5051746;28;20052;-66
2022/06/05 09:30:43;;;;;;;12.32;7.82;;;;;;;;;;5051165;28;20037;-66
2022/06/05 09:33:30;;;;;;;11.93;8.02;;;;;;;;;;5052741;28;20040;-66
2022/06/05 09:35:58;;;;;;;11.82;8.43;;;;;;;;;;5051300;28;20495;-66
2022/06/05 09:38:26;;;;;;;11.35;7.15;;;;;;;;;;5052242;28;20120;-66
2022/06/05 09:41:20;;;;;;;10.93;8.05;;;19.90;99.90;;;;;;5050982;28;20070;-65
2022/06/05 09:44:10;;;;;;;11.43;7.70;;;19.90;99.90;;;;;;5050281;28;20095;-65
2022/06/05 09:46:59;;;;;;;9.80;7.63;;;20.00;99.90;;;;;;5052817;28;20041;-66
2022/06/05 09:49:31;;;;;;;12.50;8.63;;;;;;;;;;5052752;28;20040;-66
2022/06/05 09:51:58;;;;;;;11.18;7.45;;;;;;;;;;5051316;28;20044;-66
2022/06/05 09:54:28;;;;;;;13.00;7.55;;;;;;;;;;5051281;28;20120;-66
2022/06/05 09:59:51;;;;;;;11.80;8.07;;;;;;;;;;5050528;28;20037;-66
2022/06/05 10:02:21;;;;;;;11.80;8.20;;;20.40;99.90;;;;;;5051367;28;20044;-65
2022/06/05 10:04:50;;;;;;;12.02;7.97;;;20.40;99.90;;;;;;5051304;28;20048;-65
2022/06/05 10:07:29;;;;;;;10.88;8.18;;;20.50;99.90;;;;;;5052496;28;20044;-65
2022/06/05 10:09:56;;;;;;;9.68;7.53;;;20.70;99.90;;;;;;5050665;28;20486;-65
2022/06/05 10:12:43;;;;;;;11.40;7.95;;;20.60;99.90;;;;;;5051427;28;20517;-65
2022/06/05 10:15:30;;;;;;;10.10;7.40;;;20.70;99.90;;;;;;5050762;28;20087;-66
2022/06/05 10:18:01;;;;;;;10.48;7.97;;;20.70;99.90;;;;;;5050385;28;20051;-66
2022/06/05 10:21:07;;;;;;;9.93;7.43;;;20.70;99.90;;;;;;5050096;28;20092;-65
2022/06/05 10:23:36;;;;;;;;;;;20.70;99.90;;;;;;5050828;28;20045;-65
2022/06/05 10:26:24;;;;;;;11.95;8.30;;;20.70;99.90;;;;;;5050555;28;20055;-66
2022/06/05 10:28:51;;;;;;;9.13;7.93;;;;;;;;;;5050495;28;20052;-66
2022/06/05 10:31:20;;;;;;;10.77;7.93;;;;;;;;;;5050939;28;20041;-66
2022/06/05 10:33:54;;;;;;;12.32;8.75;;;;;;;;;;5050010;28;20482;-65
2022/06/05 10:36:20;;;;;;;12.38;7.18;;;;;;;;;;5050833;28;20049;-66
2022/06/05 10:38:56;;;;;;;11.18;7.97;;;;;;;;;;5050520;28;20128;-66
2022/06/05 10:41:25;;;;;;;9.88;6.97;;;;;;;;;;5050205;28;20497;-66
2022/06/05 10:44:24;;;;;;;11.02;7.28;;;;;;;;;;5050548;28;20152;-66
2022/06/05 10:47:06;;;;;;;10.55;7.32;;;;;;;;;;5017529;28;20056;-66
2022/06/05 10:49:35;;;;;;;10.40;7.45;;;;;;;;;;5052067;28;20120;-66
2022/06/05 10:52:26;;;;;;;9.45;6.85;;;20.90;99.90;;;;;;5050396;28;20040;-65
2022/06/05 10:55:20;;;;;;;9.38;7.55;;;20.90;99.90;;;;;;5032587;28;20080;-65
2022/06/05 10:58:01;;;;;;;9.55;6.68;;;21.00;99.90;;;;;;5050284;28;20052;-65
2022/06/05 11:00:39;;;;;;;9.40;7.13;;;;;;;;;;5033941;28;20488;-66
2022/06/05 11:03:27;;;;;;;9.85;7.53;;;21.00;99.90;;;;;;5050938;28;20128;-66
2022/06/05 11:06:24;;;;;;;10.43;7.57;;;21.20;99.90;;;;;;5051159;28;20095;-66
2022/06/05 11:09:18;;;;;;;8.43;6.20;;;21.20;99.90;;;;;;5041612;28;20482;-67
2022/06/05 11:15:11;;;;;;;11.82;9.60;;;21.30;99.90;;;;;;5042593;28;20379;-68
2022/06/05 11:18:01;;;;;;;9.45;7.68;;;21.30;99.90;;;;;;5028142;28;20039;-68
2022/06/05 11:20:27;;;;;;;9.82;7.28;;;21.30;99.90;;;;;;5044663;28;20096;-68
2022/06/05 11:23:01;;;;;;;13.27;8.40;;;21.30;99.90;;;;;;5027155;28;20061;-68
2022/06/05 11:25:53;;;;;;;9.38;7.05;;;21.30;99.90;;;;;;5047868;28;20041;-69
2022/06/05 11:28:42;;;;;;;11.63;7.85;;;21.30;99.90;;;;;;5027107;28;20053;-68
2022/06/05 11:31:10;;;;;;;9.18;6.63;;;21.40;99.90;;;;;;5026029;28;20486;-68
2022/06/05 11:34:14;;;;;;;9.82;7.15;;;21.40;99.90;;;;;;5028469;28;20053;-68
2022/06/05 11:36:53;;;;;;;8.50;6.75;;;21.40;99.90;;;;;;5028809;28;20080;-68
2022/06/05 11:39:30;;;;;;;11.32;7.90;;;21.40;99.90;;;;;;5037460;28;20498;-67
2022/06/05 11:42:26;;;;;;;10.25;6.90;;;21.40;99.90;;;;;;5023447;28;20049;-67
2022/06/05 11:45:04;;;;;;;8.90;6.78;;;21.50;99.90;;;;;;5048621;28;20045;-67
2022/06/05 11:47:40;;;;;;;8.07;6.63;;;21.40;99.90;;;;;;5042604;28;20037;-67
2022/06/05 11:50:29;;;;;;;9.20;6.53;;;;;;;;;;5070688;28;20063;-67
2022/06/05 11:53:07;;;;;;;8.38;6.72;;;21.50;99.90;;;;;;5053018;28;20045;-67
2022/06/05 11:56:16;;;;;;;9.02;6.78;;;21.50;99.90;;;;;;5050429;28;20120;-67
2022/06/05 11:59:06;;;;;;;8.27;6.65;;;21.60;99.90;;;;;;5051342;28;20072;-67
2022/06/05 12:01:37;;;;;;;7.07;5.57;;;21.60;99.90;;;;;;5036554;28;20123;-66
2022/06/05 12:04:19;;;;;;;8.00;6.30;;;21.90;99.90;;;;;;5040104;28;20048;-67
2022/06/05 12:06:50;;;;;;;8.88;6.85;;;21.40;99.90;;;;;;5049697;28;20506;-66
2022/06/05 12:09:19;;;;;;;9.32;6.45;;;21.80;99.90;;;;;;5049483;28;20045;-66
2022/06/05 12:12:15;;;;;;;8.27;5.60;;;21.80;99.90;;;;;;5049460;28;20383;-66
2022/06/05 12:14:56;;;;;;;12.30;6.80;;;21.80;99.90;;;;;;5016642;28;20045;-66
2022/06/05 12:17:51;;;;;;;9.00;6.60;;;21.80;99.90;;;;;;5030967;28;20164;-66
2022/06/05 12:20:41;;;;;;;9.27;7.55;;;21.90;99.90;;;;;;5029621;28;20061;-66
2022/06/05 12:23:35;;;;;;;7.70;6.07;;;22.10;99.90;;;;;;5013589;28;20414;-67
2022/06/05 12:26:03;;;;;;;7.17;5.53;;;22.20;99.90;;;;;;5028917;28;20127;-67
2022/06/05 12:28:45;;;;;;;8.55;6.57;;;22.10;99.90;;;;;;5031686;28;20284;-67
2022/06/05 12:31:22;;;;;;;7.35;5.78;;;22.00;99.90;;;;;;5040267;28;20119;-68
2022/06/05 12:33:49;;;;;;;7.40;5.72;;;22.20;99.90;;;;;;5032411;28;20038;-68
2022/06/05 12:36:35;;;;;;;11.25;6.38;;;;;;;;;;5042120;28;20045;-68
2022/06/05 12:39:22;;;;;;;7.80;5.85;;;;;;;;;;5018907;28;20095;-69
2022/06/05 12:41:51;;;;;;;8.32;5.80;;;;;;;;;;5043916;28;20045;-69
2022/06/05 12:44:23;;;;;;;10.52;6.10;;;;;;;;;;5055784;28;20046;-69
2022/06/05 12:47:08;;;;;;;11.60;6.57;;;;;;;;;;5034386;28;20103;-69
2022/06/05 12:49:40;;;;;;;9.05;6.35;;;;;;;;;;5025588;28;20090;-68
2022/06/05 12:52:16;;;;;;;8.25;5.97;;;;;;;;;;5029138;28;20041;-70
2022/06/05 12:54:46;;;;;;;8.30;6.13;;;;;;;;;;5035530;28;20382;-69
2022/06/05 12:57:19;;;;;;;8.48;6.38;;;;;;;;;;5048605;28;20044;-70
2022/06/05 12:59:48;;;;;;;8.50;6.10;;;;;;;;;;5049299;28;20059;-69
2022/06/05 13:02:26;;;;;;;10.07;6.32;;;;;;;;;;5030821;28;20052;-69
2022/06/05 13:04:57;;;;;;;9.63;5.88;;;;;;;;;;5037040;28;20118;-70
2022/06/05 13:07:23;;;;;;;7.38;6.30;;;;;;;;;;5049929;28;20052;-69
2022/06/05 13:09:59;;;;;;;9.50;6.60;;;;;;;;;;5044298;28;20043;-69
2022/06/05 13:12:31;;;;;;;9.43;6.28;;;;;;;;;;5051183;28;20055;-69
2022/06/05 13:15:17;;;;;;;7.20;5.18;;;;;;;;;;5049423;28;20032;-69
2022/06/05 13:17:53;;;;;;;9.48;5.93;;;;;;;;;;5032565;28;20170;-70
2022/06/05 13:20:49;;;;;;;7.47;5.38;;;;;;;;;;5049477;28;20068;-69
2022/06/05 13:23:25;;;;;;;8.73;5.22;;;;;;;;;;5013369;28;20421;-69
2022/06/05 13:25:58;;;;;;;7.32;5.97;;;;;;;;;;5032139;28;20045;-70
2022/06/05 13:29:08;;;;;;;6.97;5.78;;;22.30;99.90;;;;;;5043564;28;20037;-69
2022/06/05 13:32:05;;;;;;;8.55;5.88;;;22.80;99.90;;;;;;5049548;28;20774;-70
2022/06/05 13:34:41;;;;;;;8.25;5.70;;;22.30;99.90;;;;;;5048222;28;20041;-69
2022/06/05 13:37:10;;;;;;;8.57;6.63;;;22.60;99.90;;;;;;5035558;28;20041;-70
2022/06/05 13:39:42;;;;;;;8.55;6.35;;;;;;;;;;5034197;28;20128;-69
2022/06/05 13:42:22;;;;;;;14.95;9.38;;;;;;;;;;5033735;28;20098;-69
2022/06/05 13:44:58;;;;;;;11.52;8.65;;;22.50;99.90;;;;;;5027971;28;20045;-69
2022/06/05 13:47:39;;;;;;;11.68;8.77;;;22.10;99.90;;;;;;5035901;28;20049;-70
2022/06/05 13:50:20;;;;;;;12.50;8.82;;;;;;;;;;5031393;28;20584;-70
2022/06/05 14:20:11;;;;;;;15.85;10.57;;;;;;;;;;5036000;28;20106;-70
2022/06/05 14:22:53;;;;;;;14.85;10.23;;;;;;;;;;5035624;28;20080;-69